sensor_id;sensor_type;location;lat;lon;timestamp;pressure;altitude;pressure_sealevel;temperature;humidity
60055;BME280;45930;53.514;55.904;2023-05-09T00:00:29;49151.78;;;-149.77;41.34
60055;BME280;45930;53.514;55.904;2023-05-09T00:01:31;49167.63;;;-149.77;41.25
60055;BME280;45930;53.514;55.904;2023-05-09T00:02:32;49167.63;;;-149.77;41.42
60055;BME280;45930;53.514;55.904;2023-05-09T00:03:34;49183.47;;;-149.77;41.49
60055;BME280;45930;53.514;55.904;2023-05-09T00:04:34;49163.66;;;-149.77;41.47
60055;BME280;45930;53.514;55.904;2023-05-09T00:05:35;49161.69;;;-149.77;41.41
60055;BME280;45930;53.514;55.904;2023-05-09T00:06:36;49193.38;;;-149.77;41.79
60055;BME280;45930;53.514;55.904;2023-05-09T00:07:37;49199.31;;;-149.77;41.77
60055;BME280;45930;53.514;55.904;2023-05-09T00:08:38;49173.56;;;-149.77;41.79
60055;BME280;45930;53.514;55.904;2023-05-09T00:09:40;49173.56;;;-149.77;41.63
60055;BME280;45930;53.514;55.904;2023-05-09T00:10:41;49191.38;;;-149.77;41.34
60055;BME280;45930;53.514;55.904;2023-05-09T00:11:42;49181.50;;;-149.77;42.05
60055;BME280;45930;53.514;55.904;2023-05-09T00:12:43;49175.53;;;-149.77;42.10
60055;BME280;45930;53.514;55.904;2023-05-09T00:13:44;49171.59;;;-149.77;42.41
60055;BME280;45930;53.514;55.904;2023-05-09T00:14:45;49163.66;;;-149.77;42.37
60055;BME280;45930;53.514;55.904;2023-05-09T00:15:48;49195.34;;;-149.77;41.93
60055;BME280;45930;53.514;55.904;2023-05-09T00:16:48;49165.63;;;-149.77;42.34
60055;BME280;45930;53.514;55.904;2023-05-09T00:17:50;49199.31;;;-149.77;41.81
60055;BME280;45930;53.514;55.904;2023-05-09T00:18:51;49167.63;;;-149.77;41.68
60055;BME280;45930;53.514;55.904;2023-05-09T00:19:52;49195.34;;;-149.77;41.77
60055;BME280;45930;53.514;55.904;2023-05-09T00:20:53;49191.38;;;-149.77;41.82
60055;BME280;45930;53.514;55.904;2023-05-09T00:21:54;49163.66;;;-149.77;41.91
60055;BME280;45930;53.514;55.904;2023-05-09T00:22:55;49203.28;;;-149.77;42.09
60055;BME280;45930;53.514;55.904;2023-05-09T00:23:56;49195.34;;;-149.77;41.82
60055;BME280;45930;53.514;55.904;2023-05-09T00:24:57;49155.75;;;-149.77;41.99
60055;BME280;45930;53.514;55.904;2023-05-09T00:25:58;49155.75;;;-149.77;42.05
60055;BME280;45930;53.514;55.904;2023-05-09T00:26:59;49171.59;;;-149.77;42.21
60055;BME280;45930;53.514;55.904;2023-05-09T00:28:00;49165.63;;;-149.77;41.89
60055;BME280;45930;53.514;55.904;2023-05-09T00:29:00;49153.75;;;-149.77;42.56
60055;BME280;45930;53.514;55.904;2023-05-09T00:30:03;49175.53;;;-149.77;42.30
60055;BME280;45930;53.514;55.904;2023-05-09T00:31:04;49201.28;;;-149.77;42.42
60055;BME280;45930;53.514;55.904;2023-05-09T00:32:05;49187.44;;;-149.77;42.85
60055;BME280;45930;53.514;55.904;2023-05-09T00:33:05;49179.50;;;-149.77;42.79
60055;BME280;45930;53.514;55.904;2023-05-09T00:34:06;49169.59;;;-149.77;42.83
60055;BME280;45930;53.514;55.904;2023-05-09T00:35:08;49191.38;;;-149.77;42.49
60055;BME280;45930;53.514;55.904;2023-05-09T00:36:09;49169.59;;;-149.77;42.70
60055;BME280;45930;53.514;55.904;2023-05-09T00:37:10;49177.53;;;-149.77;42.67
60055;BME280;45930;53.514;55.904;2023-05-09T00:38:11;49189.41;;;-149.77;42.42
60055;BME280;45930;53.514;55.904;2023-05-09T00:39:12;49167.63;;;-149.77;42.78
60055;BME280;45930;53.514;55.904;2023-05-09T00:40:13;49187.44;;;-149.77;42.90
60055;BME280;45930;53.514;55.904;2023-05-09T00:41:14;49171.59;;;-149.77;42.76
60055;BME280;45930;53.514;55.904;2023-05-09T00:42:15;49191.38;;;-149.77;42.72
60055;BME280;45930;53.514;55.904;2023-05-09T00:43:16;49189.41;;;-149.77;42.57
60055;BME280;45930;53.514;55.904;2023-05-09T00:44:17;49157.72;;;-149.77;42.45
60055;BME280;45930;53.514;55.904;2023-05-09T00:45:18;49181.50;;;-149.77;42.81
60055;BME280;45930;53.514;55.904;2023-05-09T00:46:19;49175.53;;;-149.77;42.65
60055;BME280;45930;53.514;55.904;2023-05-09T00:47:22;49145.84;;;-149.77;42.67
60055;BME280;45930;53.514;55.904;2023-05-09T00:48:23;49171.59;;;-149.77;42.50
60055;BME280;45930;53.514;55.904;2023-05-09T00:49:24;49177.53;;;-149.77;42.63
60055;BME280;45930;53.514;55.904;2023-05-09T00:50:25;49161.69;;;-149.77;42.76
60055;BME280;45930;53.514;55.904;2023-05-09T00:51:27;49175.53;;;-149.77;42.33
60055;BME280;45930;53.514;55.904;2023-05-09T00:52:28;49165.63;;;-149.77;42.72
60055;BME280;45930;53.514;55.904;2023-05-09T00:53:29;49163.66;;;-149.77;42.05
60055;BME280;45930;53.514;55.904;2023-05-09T00:54:30;49179.50;;;-149.77;42.15
60055;BME280;45930;53.514;55.904;2023-05-09T00:55:32;49151.78;;;-149.77;41.84
60055;BME280;45930;53.514;55.904;2023-05-09T00:56:33;49173.56;;;-149.77;42.08
60055;BME280;45930;53.514;55.904;2023-05-09T00:57:34;49165.63;;;-149.77;42.17
60055;BME280;45930;53.514;55.904;2023-05-09T00:58:35;49171.59;;;-149.77;42.20
60055;BME280;45930;53.514;55.904;2023-05-09T00:59:36;49167.63;;;-149.77;42.20
60055;BME280;45930;53.514;55.904;2023-05-09T01:00:37;49157.72;;;-149.77;42.42
60055;BME280;45930;53.514;55.904;2023-05-09T01:01:37;49169.59;;;-149.77;42.42
60055;BME280;45930;53.514;55.904;2023-05-09T01:02:52;49149.78;;;-149.77;42.39
60055;BME280;45930;53.514;55.904;2023-05-09T01:03:54;49183.47;;;-149.77;42.66
60055;BME280;45930;53.514;55.904;2023-05-09T01:04:55;49167.63;;;-149.77;42.75
60055;BME280;45930;53.514;55.904;2023-05-09T01:06:39;49187.44;;;-149.77;42.09
60055;BME280;45930;53.514;55.904;2023-05-09T01:08:05;49175.53;;;-149.77;42.90
60055;BME280;45930;53.514;55.904;2023-05-09T01:10:49;49175.53;;;-149.77;42.37
60055;BME280;45930;53.514;55.904;2023-05-09T01:14:39;49191.38;;;-149.77;42.37
60055;BME280;45930;53.514;55.904;2023-05-09T01:16:00;49171.59;;;-149.77;42.42
60055;BME280;45930;53.514;55.904;2023-05-09T01:18:39;49161.69;;;-149.77;42.44
60055;BME280;45930;53.514;55.904;2023-05-09T01:21:21;49163.66;;;-149.77;42.38
60055;BME280;45930;53.514;55.904;2023-05-09T01:22:28;49169.59;;;-149.77;42.23
60055;BME280;45930;53.514;55.904;2023-05-09T01:27:38;49165.63;;;-149.77;42.42
60055;BME280;45930;53.514;55.904;2023-05-09T01:30:16;49149.78;;;-149.77;42.31
60055;BME280;45930;53.514;55.904;2023-05-09T01:31:18;49163.66;;;-149.77;42.12
60055;BME280;45930;53.514;55.904;2023-05-09T01:32:23;49173.56;;;-149.77;42.16
60055;BME280;45930;53.514;55.904;2023-05-09T01:33:25;49159.69;;;-149.77;42.02
60055;BME280;45930;53.514;55.904;2023-05-09T01:34:27;49167.63;;;-149.77;42.38
60055;BME280;45930;53.514;55.904;2023-05-09T01:35:31;49157.72;;;-149.77;42.04
60055;BME280;45930;53.514;55.904;2023-05-09T01:36:35;49163.66;;;-149.77;41.96
60055;BME280;45930;53.514;55.904;2023-05-09T01:37:39;49159.69;;;-149.77;41.91
60055;BME280;45930;53.514;55.904;2023-05-09T01:38:43;49159.69;;;-149.77;41.90
60055;BME280;45930;53.514;55.904;2023-05-09T01:39:47;49191.38;;;-149.77;42.00
60055;BME280;45930;53.514;55.904;2023-05-09T01:40:53;49155.75;;;-149.77;41.85
60055;BME280;45930;53.514;55.904;2023-05-09T01:41:57;49153.75;;;-149.77;41.51
60055;BME280;45930;53.514;55.904;2023-05-09T01:43:06;49165.63;;;-149.77;41.65
60055;BME280;45930;53.514;55.904;2023-05-09T01:44:10;49169.59;;;-149.77;41.52
60055;BME280;45930;53.514;55.904;2023-05-09T01:45:13;49157.72;;;-149.77;41.85
60055;BME280;45930;53.514;55.904;2023-05-09T01:46:16;49149.78;;;-149.77;41.67
60055;BME280;45930;53.514;55.904;2023-05-09T01:47:18;49155.75;;;-149.77;42.15
60055;BME280;45930;53.514;55.904;2023-05-09T01:48:19;49169.59;;;-149.77;41.94
60055;BME280;45930;53.514;55.904;2023-05-09T01:49:22;49149.78;;;-149.77;41.87
60055;BME280;45930;53.514;55.904;2023-05-09T01:50:24;49151.78;;;-149.77;41.29
60055;BME280;45930;53.514;55.904;2023-05-09T01:51:26;49165.63;;;-149.77;41.32
60055;BME280;45930;53.514;55.904;2023-05-09T01:52:29;49169.59;;;-149.77;41.51
60055;BME280;45930;53.514;55.904;2023-05-09T01:53:31;49135.94;;;-149.77;41.36
60055;BME280;45930;53.514;55.904;2023-05-09T01:54:34;49165.63;;;-149.77;41.19
60055;BME280;45930;53.514;55.904;2023-05-09T01:55:38;49151.78;;;-149.77;41.05
60055;BME280;45930;53.514;55.904;2023-05-09T01:56:41;49169.59;;;-149.77;41.32
60055;BME280;45930;53.514;55.904;2023-05-09T01:57:43;49163.66;;;-149.77;40.97
60055;BME280;45930;53.514;55.904;2023-05-09T01:58:45;49149.78;;;-149.77;41.36
60055;BME280;45930;53.514;55.904;2023-05-09T01:59:48;49159.69;;;-149.77;40.79
60055;BME280;45930;53.514;55.904;2023-05-09T02:00:50;49141.88;;;-149.77;41.01
60055;BME280;45930;53.514;55.904;2023-05-09T02:01:51;49159.69;;;-149.77;40.66
60055;BME280;45930;53.514;55.904;2023-05-09T02:02:56;49155.75;;;-149.77;40.66
60055;BME280;45930;53.514;55.904;2023-05-09T02:03:57;49153.75;;;-149.77;40.56
60055;BME280;45930;53.514;55.904;2023-05-09T02:04:59;49124.03;;;-149.77;40.56
60055;BME280;45930;53.514;55.904;2023-05-09T02:06:01;49171.59;;;-149.77;40.49
60055;BME280;45930;53.514;55.904;2023-05-09T02:07:04;49179.50;;;-149.77;40.40
60055;BME280;45930;53.514;55.904;2023-05-09T02:08:07;49149.78;;;-149.77;40.59
60055;BME280;45930;53.514;55.904;2023-05-09T02:09:08;49161.69;;;-149.77;40.37
60055;BME280;45930;53.514;55.904;2023-05-09T02:10:10;49179.50;;;-149.77;40.49
60055;BME280;45930;53.514;55.904;2023-05-09T02:11:11;49165.63;;;-149.77;40.67
60055;BME280;45930;53.514;55.904;2023-05-09T02:12:12;49141.88;;;-149.77;40.62
60055;BME280;45930;53.514;55.904;2023-05-09T02:13:13;49165.63;;;-149.77;40.52
60055;BME280;45930;53.514;55.904;2023-05-09T02:14:14;49165.63;;;-149.77;40.84
60055;BME280;45930;53.514;55.904;2023-05-09T02:15:15;49139.91;;;-149.77;40.83
60055;BME280;45930;53.514;55.904;2023-05-09T02:16:16;49151.78;;;-149.77;40.46
60055;BME280;45930;53.514;55.904;2023-05-09T02:17:17;49135.94;;;-149.77;40.60
60055;BME280;45930;53.514;55.904;2023-05-09T02:18:19;49139.91;;;-149.77;40.55
60055;BME280;45930;53.514;55.904;2023-05-09T02:19:20;49147.81;;;-149.77;40.56
60055;BME280;45930;53.514;55.904;2023-05-09T02:20:21;49112.16;;;-149.77;40.37
60055;BME280;45930;53.514;55.904;2023-05-09T02:21:21;49137.91;;;-149.77;40.46
60055;BME280;45930;53.514;55.904;2023-05-09T02:22:23;49143.84;;;-149.77;40.44
60055;BME280;45930;53.514;55.904;2023-05-09T02:23:23;49135.94;;;-149.77;40.48
60055;BME280;45930;53.514;55.904;2023-05-09T02:24:24;49149.78;;;-149.77;40.58
60055;BME280;45930;53.514;55.904;2023-05-09T02:25:25;49149.78;;;-149.77;40.69
60055;BME280;45930;53.514;55.904;2023-05-09T02:26:27;49151.78;;;-149.77;40.73
60055;BME280;45930;53.514;55.904;2023-05-09T02:27:28;49167.63;;;-149.77;40.41
60055;BME280;45930;53.514;55.904;2023-05-09T02:28:29;49149.78;;;-149.77;40.33
60055;BME280;45930;53.514;55.904;2023-05-09T02:29:39;49145.84;;;-149.77;40.41
60055;BME280;45930;53.514;55.904;2023-05-09T02:30:43;49135.94;;;-149.77;40.16
60055;BME280;45930;53.514;55.904;2023-05-09T02:31:45;49139.91;;;-149.77;40.29
60055;BME280;45930;53.514;55.904;2023-05-09T02:32:50;49135.94;;;-149.77;40.06
60055;BME280;45930;53.514;55.904;2023-05-09T02:33:52;49124.03;;;-149.77;40.06
60055;BME280;45930;53.514;55.904;2023-05-09T02:34:54;49133.94;;;-149.77;39.86
60055;BME280;45930;53.514;55.904;2023-05-09T02:35:56;49165.63;;;-149.77;39.83
60055;BME280;45930;53.514;55.904;2023-05-09T02:36:57;49141.88;;;-149.77;39.72
60055;BME280;45930;53.514;55.904;2023-05-09T02:37:59;49135.94;;;-149.77;39.80
60055;BME280;45930;53.514;55.904;2023-05-09T02:39:00;49141.88;;;-149.77;39.92
60055;BME280;45930;53.514;55.904;2023-05-09T02:40:01;49126.03;;;-149.77;39.80
60055;BME280;45930;53.514;55.904;2023-05-09T02:41:14;49131.97;;;-149.77;39.77
60055;BME280;45930;53.514;55.904;2023-05-09T02:42:19;49133.94;;;-149.77;40.11
60055;BME280;45930;53.514;55.904;2023-05-09T02:43:21;49120.09;;;-149.77;40.39
60055;BME280;45930;53.514;55.904;2023-05-09T02:44:21;49131.97;;;-149.77;40.31
60055;BME280;45930;53.514;55.904;2023-05-09T02:45:22;49135.94;;;-149.77;40.17
60055;BME280;45930;53.514;55.904;2023-05-09T02:46:23;49143.84;;;-149.77;40.03
60055;BME280;45930;53.514;55.904;2023-05-09T02:47:24;49141.88;;;-149.77;39.90
60055;BME280;45930;53.514;55.904;2023-05-09T02:48:25;49116.13;;;-149.77;39.93
60055;BME280;45930;53.514;55.904;2023-05-09T02:49:26;49149.78;;;-149.77;40.00
60055;BME280;45930;53.514;55.904;2023-05-09T02:50:27;49108.19;;;-149.77;39.88
60055;BME280;45930;53.514;55.904;2023-05-09T02:51:28;49130.00;;;-149.77;39.54
60055;BME280;45930;53.514;55.904;2023-05-09T02:52:28;49139.91;;;-149.77;39.31
60055;BME280;45930;53.514;55.904;2023-05-09T02:53:29;49137.91;;;-149.77;39.31
60055;BME280;45930;53.514;55.904;2023-05-09T02:54:30;49157.72;;;-149.77;39.34
60055;BME280;45930;53.514;55.904;2023-05-09T02:55:31;49130.00;;;-149.77;39.53
60055;BME280;45930;53.514;55.904;2023-05-09T02:56:32;49131.97;;;-149.77;39.66
60055;BME280;45930;53.514;55.904;2023-05-09T02:57:33;49126.03;;;-149.77;39.51
60055;BME280;45930;53.514;55.904;2023-05-09T02:58:33;49133.94;;;-149.77;39.27
60055;BME280;45930;53.514;55.904;2023-05-09T02:59:34;49159.69;;;-149.77;39.35
60055;BME280;45930;53.514;55.904;2023-05-09T03:00:35;49112.16;;;-149.77;39.25
60055;BME280;45930;53.514;55.904;2023-05-09T03:01:36;49128.00;;;-149.77;39.33
60055;BME280;45930;53.514;55.904;2023-05-09T03:02:37;49130.00;;;-149.77;39.43
60055;BME280;45930;53.514;55.904;2023-05-09T03:03:38;49141.88;;;-149.77;39.30
60055;BME280;45930;53.514;55.904;2023-05-09T03:04:39;49130.00;;;-149.77;39.50
60055;BME280;45930;53.514;55.904;2023-05-09T03:05:40;49147.81;;;-149.77;39.43
60055;BME280;45930;53.514;55.904;2023-05-09T03:06:41;49131.97;;;-149.77;39.27
60055;BME280;45930;53.514;55.904;2023-05-09T03:07:43;49145.84;;;-149.77;39.20
60055;BME280;45930;53.514;55.904;2023-05-09T03:08:44;49139.91;;;-149.77;39.33
60055;BME280;45930;53.514;55.904;2023-05-09T03:09:44;49122.06;;;-149.77;38.82
60055;BME280;45930;53.514;55.904;2023-05-09T03:10:45;49126.03;;;-149.77;39.10
60055;BME280;45930;53.514;55.904;2023-05-09T03:11:47;49116.13;;;-149.77;38.74
60055;BME280;45930;53.514;55.904;2023-05-09T03:12:48;49104.25;;;-149.77;38.73
60055;BME280;45930;53.514;55.904;2023-05-09T03:13:48;49135.94;;;-149.77;38.90
60055;BME280;45930;53.514;55.904;2023-05-09T03:14:49;49137.91;;;-149.77;38.73
60055;BME280;45930;53.514;55.904;2023-05-09T03:15:50;49106.22;;;-149.77;38.96
60055;BME280;45930;53.514;55.904;2023-05-09T03:16:51;49133.94;;;-149.77;38.65
60055;BME280;45930;53.514;55.904;2023-05-09T03:17:52;49135.94;;;-149.77;38.59
60055;BME280;45930;53.514;55.904;2023-05-09T03:18:52;49128.00;;;-149.77;38.73
60055;BME280;45930;53.514;55.904;2023-05-09T03:19:53;49116.13;;;-149.77;38.57
60055;BME280;45930;53.514;55.904;2023-05-09T03:20:54;49141.88;;;-149.77;38.63
60055;BME280;45930;53.514;55.904;2023-05-09T03:21:55;49124.03;;;-149.77;38.77
60055;BME280;45930;53.514;55.904;2023-05-09T03:22:55;49112.16;;;-149.77;38.90
60055;BME280;45930;53.514;55.904;2023-05-09T03:23:56;49151.78;;;-149.77;38.83
60055;BME280;45930;53.514;55.904;2023-05-09T03:24:57;49137.91;;;-149.77;38.90
60055;BME280;45930;53.514;55.904;2023-05-09T03:25:58;49131.97;;;-149.77;38.97
60055;BME280;45930;53.514;55.904;2023-05-09T03:26:59;49112.16;;;-149.77;38.52
60055;BME280;45930;53.514;55.904;2023-05-09T03:27:59;49131.97;;;-149.77;38.57
60055;BME280;45930;53.514;55.904;2023-05-09T03:29:01;49114.16;;;-149.77;38.19
60055;BME280;45930;53.514;55.904;2023-05-09T03:30:02;49102.25;;;-149.77;37.76
60055;BME280;45930;53.514;55.904;2023-05-09T03:31:04;49137.91;;;-149.77;37.98
60055;BME280;45930;53.514;55.904;2023-05-09T03:32:05;49120.09;;;-149.77;38.31
60055;BME280;45930;53.514;55.904;2023-05-09T03:33:06;49100.28;;;-149.77;38.05
60055;BME280;45930;53.514;55.904;2023-05-09T03:34:07;49120.09;;;-149.77;37.42
60055;BME280;45930;53.514;55.904;2023-05-09T03:35:14;49137.91;;;-149.77;37.38
60055;BME280;45930;53.514;55.904;2023-05-09T03:36:15;49124.03;;;-149.77;37.51
60055;BME280;45930;53.514;55.904;2023-05-09T03:37:16;49139.91;;;-149.77;37.58
60055;BME280;45930;53.514;55.904;2023-05-09T03:38:17;49118.09;;;-149.77;37.28
60055;BME280;45930;53.514;55.904;2023-05-09T03:39:18;49112.16;;;-149.77;37.22
60055;BME280;45930;53.514;55.904;2023-05-09T03:40:19;49108.19;;;-149.77;37.51
60055;BME280;45930;53.514;55.904;2023-05-09T03:41:20;49116.13;;;-149.77;37.44
60055;BME280;45930;53.514;55.904;2023-05-09T03:42:21;49100.28;;;-149.77;37.25
60055;BME280;45930;53.514;55.904;2023-05-09T03:43:22;49108.19;;;-149.77;37.18
60055;BME280;45930;53.514;55.904;2023-05-09T03:44:23;49100.28;;;-149.77;37.22
60055;BME280;45930;53.514;55.904;2023-05-09T03:45:23;49120.09;;;-149.77;37.10
60055;BME280;45930;53.514;55.904;2023-05-09T03:46:24;49108.19;;;-149.77;36.94
60055;BME280;45930;53.514;55.904;2023-05-09T03:47:25;49122.06;;;-149.77;36.90
60055;BME280;45930;53.514;55.904;2023-05-09T03:48:26;49104.25;;;-149.77;36.70
60055;BME280;45930;53.514;55.904;2023-05-09T03:49:27;49120.09;;;-149.77;36.57
60055;BME280;45930;53.514;55.904;2023-05-09T03:50:28;49120.09;;;-149.77;36.80
60055;BME280;45930;53.514;55.904;2023-05-09T03:51:29;49098.28;;;-149.77;36.41
60055;BME280;45930;53.514;55.904;2023-05-09T03:52:30;49092.34;;;-149.77;36.35
60055;BME280;45930;53.514;55.904;2023-05-09T03:53:31;49120.09;;;-149.77;36.06
60055;BME280;45930;53.514;55.904;2023-05-09T03:54:32;49100.28;;;-149.77;35.95
60055;BME280;45930;53.514;55.904;2023-05-09T03:55:32;49088.41;;;-149.77;35.88
60055;BME280;45930;53.514;55.904;2023-05-09T03:56:33;49128.00;;;-149.77;35.84
60055;BME280;45930;53.514;55.904;2023-05-09T03:57:34;49096.31;;;-149.77;36.13
60055;BME280;45930;53.514;55.904;2023-05-09T03:58:35;49096.31;;;-149.77;35.73
60055;BME280;45930;53.514;55.904;2023-05-09T03:59:36;49098.28;;;-149.77;35.79
60055;BME280;45930;53.514;55.904;2023-05-09T04:00:37;49126.03;;;-149.77;35.36
60055;BME280;45930;53.514;55.904;2023-05-09T04:01:38;49108.19;;;-149.77;35.24
60055;BME280;45930;53.514;55.904;2023-05-09T04:02:40;49116.13;;;-149.77;35.24
60055;BME280;45930;53.514;55.904;2023-05-09T04:03:41;49094.34;;;-149.77;34.76
60055;BME280;45930;53.514;55.904;2023-05-09T04:04:42;49104.25;;;-149.77;35.08
60055;BME280;45930;53.514;55.904;2023-05-09T04:05:44;49092.34;;;-149.77;34.71
60055;BME280;45930;53.514;55.904;2023-05-09T04:06:45;49100.28;;;-149.77;34.86
60055;BME280;45930;53.514;55.904;2023-05-09T04:07:46;49092.34;;;-149.77;35.10
60055;BME280;45930;53.514;55.904;2023-05-09T04:08:47;49116.13;;;-149.77;35.15
60055;BME280;45930;53.514;55.904;2023-05-09T04:09:47;49128.00;;;-149.77;34.95
60055;BME280;45930;53.514;55.904;2023-05-09T04:10:49;49102.25;;;-149.77;35.05
60055;BME280;45930;53.514;55.904;2023-05-09T04:11:51;49092.34;;;-149.77;35.07
60055;BME280;45930;53.514;55.904;2023-05-09T04:12:52;49100.28;;;-149.77;34.62
60055;BME280;45930;53.514;55.904;2023-05-09T04:13:53;49108.19;;;-149.77;34.83
60055;BME280;45930;53.514;55.904;2023-05-09T04:14:54;49104.25;;;-149.77;34.27
60055;BME280;45930;53.514;55.904;2023-05-09T04:15:54;49122.06;;;-149.77;34.44
60055;BME280;45930;53.514;55.904;2023-05-09T04:16:55;49116.13;;;-149.77;34.34
60055;BME280;45930;53.514;55.904;2023-05-09T04:17:56;49102.25;;;-149.77;34.14
60055;BME280;45930;53.514;55.904;2023-05-09T04:18:57;49126.03;;;-149.77;34.07
60055;BME280;45930;53.514;55.904;2023-05-09T04:19:58;49098.28;;;-149.77;33.96
60055;BME280;45930;53.514;55.904;2023-05-09T04:20:59;49118.09;;;-149.77;34.19
60055;BME280;45930;53.514;55.904;2023-05-09T04:22:00;49084.44;;;-149.77;34.31
60055;BME280;45930;53.514;55.904;2023-05-09T04:23:01;49108.19;;;-149.77;33.97
60055;BME280;45930;53.514;55.904;2023-05-09T04:24:02;49120.09;;;-149.77;33.88
60055;BME280;45930;53.514;55.904;2023-05-09T04:25:03;49120.09;;;-149.77;33.83
60055;BME280;45930;53.514;55.904;2023-05-09T04:26:04;49116.13;;;-149.77;34.21
60055;BME280;45930;53.514;55.904;2023-05-09T04:27:05;49114.16;;;-149.77;34.28
60055;BME280;45930;53.514;55.904;2023-05-09T04:28:06;49096.31;;;-149.77;34.27
60055;BME280;45930;53.514;55.904;2023-05-09T04:29:07;49112.16;;;-149.77;34.21
60055;BME280;45930;53.514;55.904;2023-05-09T04:30:09;49114.16;;;-149.77;34.40
60055;BME280;45930;53.514;55.904;2023-05-09T04:31:10;49122.06;;;-149.77;34.37
60055;BME280;45930;53.514;55.904;2023-05-09T04:32:14;49106.22;;;-149.77;34.42
60055;BME280;45930;53.514;55.904;2023-05-09T04:33:15;49116.13;;;-149.77;34.60
60055;BME280;45930;53.514;55.904;2023-05-09T04:34:16;49126.03;;;-149.77;34.54
60055;BME280;45930;53.514;55.904;2023-05-09T04:35:18;49104.25;;;-149.77;34.52
60055;BME280;45930;53.514;55.904;2023-05-09T04:36:18;49092.34;;;-149.77;34.21
60055;BME280;45930;53.514;55.904;2023-05-09T04:37:19;49096.31;;;-149.77;34.28
60055;BME280;45930;53.514;55.904;2023-05-09T04:38:20;49124.03;;;-149.77;33.99
60055;BME280;45930;53.514;55.904;2023-05-09T04:39:21;49084.44;;;-149.77;34.20
60055;BME280;45930;53.514;55.904;2023-05-09T04:40:22;49088.41;;;-149.77;34.31
60055;BME280;45930;53.514;55.904;2023-05-09T04:41:23;49090.38;;;-149.77;34.16
60055;BME280;45930;53.514;55.904;2023-05-09T04:42:23;49092.34;;;-149.77;33.98
60055;BME280;45930;53.514;55.904;2023-05-09T04:43:24;49098.28;;;-149.77;33.93
60055;BME280;45930;53.514;55.904;2023-05-09T04:44:27;49068.59;;;-149.77;33.83
60055;BME280;45930;53.514;55.904;2023-05-09T04:45:28;49128.00;;;-149.77;33.85
60055;BME280;45930;53.514;55.904;2023-05-09T04:46:29;49106.22;;;-149.77;33.64
60055;BME280;45930;53.514;55.904;2023-05-09T04:47:30;49116.13;;;-149.77;33.76
60055;BME280;45930;53.514;55.904;2023-05-09T04:48:31;49104.25;;;-149.77;33.59
60055;BME280;45930;53.514;55.904;2023-05-09T04:49:32;49110.19;;;-149.77;33.38
60055;BME280;45930;53.514;55.904;2023-05-09T04:50:33;49096.31;;;-149.77;33.87
60055;BME280;45930;53.514;55.904;2023-05-09T04:51:34;49090.38;;;-149.77;33.69
60055;BME280;45930;53.514;55.904;2023-05-09T04:52:34;49090.38;;;-149.77;33.59
60055;BME280;45930;53.514;55.904;2023-05-09T04:53:35;49104.25;;;-149.77;33.36
60055;BME280;45930;53.514;55.904;2023-05-09T04:54:36;49072.53;;;-149.77;33.13
60055;BME280;45930;53.514;55.904;2023-05-09T04:55:37;49100.28;;;-149.77;33.10
60055;BME280;45930;53.514;55.904;2023-05-09T04:56:37;49086.41;;;-149.77;33.01
60055;BME280;45930;53.514;55.904;2023-05-09T04:57:38;49102.25;;;-149.77;32.92
60055;BME280;45930;53.514;55.904;2023-05-09T04:58:39;49090.38;;;-149.77;33.28
60055;BME280;45930;53.514;55.904;2023-05-09T04:59:40;49102.25;;;-149.77;32.85
60055;BME280;45930;53.514;55.904;2023-05-09T05:00:41;49104.25;;;-149.77;32.52
60055;BME280;45930;53.514;55.904;2023-05-09T05:01:42;49090.38;;;-149.77;32.55
60055;BME280;45930;53.514;55.904;2023-05-09T05:02:43;49102.25;;;-149.77;31.93
60055;BME280;45930;53.514;55.904;2023-05-09T05:03:44;49104.25;;;-149.77;31.82
60055;BME280;45930;53.514;55.904;2023-05-09T05:04:45;49084.44;;;-149.77;32.08
60055;BME280;45930;53.514;55.904;2023-05-09T05:05:46;49108.19;;;-149.77;32.27
60055;BME280;45930;53.514;55.904;2023-05-09T05:06:47;49110.19;;;-149.77;32.48
60055;BME280;45930;53.514;55.904;2023-05-09T05:07:47;49094.34;;;-149.77;32.37
60055;BME280;45930;53.514;55.904;2023-05-09T05:08:48;49090.38;;;-149.77;32.90
60055;BME280;45930;53.514;55.904;2023-05-09T05:09:49;49114.16;;;-149.77;32.70
60055;BME280;45930;53.514;55.904;2023-05-09T05:10:50;49088.41;;;-149.77;32.73
60055;BME280;45930;53.514;55.904;2023-05-09T05:11:51;49090.38;;;-149.77;32.60
60055;BME280;45930;53.514;55.904;2023-05-09T05:12:51;49050.75;;;-149.77;32.54
60055;BME280;45930;53.514;55.904;2023-05-09T05:13:52;49084.44;;;-149.77;32.62
60055;BME280;45930;53.514;55.904;2023-05-09T05:14:53;49068.59;;;-149.77;32.52
60055;BME280;45930;53.514;55.904;2023-05-09T05:15:54;49074.53;;;-149.77;32.53
60055;BME280;45930;53.514;55.904;2023-05-09T05:16:55;49100.28;;;-149.77;32.88
60055;BME280;45930;53.514;55.904;2023-05-09T05:17:56;49096.31;;;-149.77;32.53
60055;BME280;45930;53.514;55.904;2023-05-09T05:18:57;49110.19;;;-149.77;32.75
60055;BME280;45930;53.514;55.904;2023-05-09T05:19:58;49102.25;;;-149.77;32.72
60055;BME280;45930;53.514;55.904;2023-05-09T05:20:58;49072.53;;;-149.77;32.62
60055;BME280;45930;53.514;55.904;2023-05-09T05:21:59;49096.31;;;-149.77;32.59
60055;BME280;45930;53.514;55.904;2023-05-09T05:23:01;49076.50;;;-149.77;32.52
60055;BME280;45930;53.514;55.904;2023-05-09T05:24:01;49096.31;;;-149.77;32.56
60055;BME280;45930;53.514;55.904;2023-05-09T05:25:02;49122.06;;;-149.77;31.74
60055;BME280;45930;53.514;55.904;2023-05-09T05:26:05;49094.34;;;-149.77;31.67
60055;BME280;45930;53.514;55.904;2023-05-09T05:27:06;49092.34;;;-149.77;31.44
60055;BME280;45930;53.514;55.904;2023-05-09T05:28:07;49092.34;;;-149.77;31.61